createdAt,value
2022-11-07T00:01:14.409Z,76.44
2022-11-07T00:03:41.228Z,76.56
2022-11-07T00:06:08.072Z,76.20
2022-11-07T00:08:34.891Z,77.14
2022-11-07T00:11:02.194Z,77.44
2022-11-07T00:13:29.360Z,77.14
2022-11-07T00:16:07.681Z,77.88
2022-11-07T00:18:34.930Z,78.14
2022-11-07T00:21:03.460Z,78.43
2022-11-07T00:23:30.238Z,78.81
2022-11-07T00:26:04.620Z,77.79
2022-11-07T00:28:38.235Z,78.88
2022-11-07T00:31:06.129Z,79.36
2022-11-07T00:33:33.321Z,78.93
2022-11-07T00:36:00.135Z,79.01
2022-11-07T00:38:27.598Z,78.00
2022-11-07T00:40:58.789Z,78.75
2022-11-07T00:43:25.673Z,78.87
2022-11-07T00:45:52.617Z,78.25
2022-11-07T00:48:19.458Z,78.08
2022-11-07T00:50:46.262Z,78.85
2022-11-07T00:53:13.256Z,78.58
2022-11-07T00:55:40.174Z,77.96
2022-11-07T00:58:12.546Z,77.55
2022-11-07T01:00:40.807Z,77.37
2022-11-07T01:03:26.117Z,77.27
2022-11-07T01:06:00.870Z,77.10
2022-11-07T01:08:27.916Z,77.29
2022-11-07T01:10:55.070Z,77.35
2022-11-07T01:13:22.616Z,77.12
2022-11-07T01:15:49.623Z,76.65
2022-11-07T01:18:16.376Z,76.42
2022-11-07T01:20:43.139Z,77.02
2022-11-07T01:23:09.961Z,76.68
2022-11-07T01:25:38.095Z,76.29
2022-11-07T01:28:05.626Z,76.77
2022-11-07T01:30:32.671Z,76.42
2022-11-07T01:32:59.567Z,75.98
2022-11-07T01:35:26.335Z,76.33
2022-11-07T01:37:53.060Z,77.24
2022-11-07T01:40:19.931Z,77.13
2022-11-07T01:42:46.724Z,77.29
2022-11-07T01:45:20.397Z,76.53
2022-11-07T01:47:47.640Z,76.73
2022-11-07T01:50:14.624Z,76.33
2022-11-07T01:52:44.293Z,75.95
2022-11-07T01:55:15.917Z,76.32
2022-11-07T01:57:47.603Z,76.67
2022-11-07T02:00:16.810Z,77.06
2022-11-07T02:02:45.620Z,77.88
2022-11-07T02:05:15.451Z,77.87
2022-11-07T02:07:42.315Z,77.38
2022-11-07T02:10:09.637Z,78.25
2022-11-07T02:12:36.998Z,77.66
2022-11-07T02:15:04.055Z,77.41
2022-11-07T02:17:30.906Z,78.31
2022-11-07T02:19:57.613Z,78.07
2022-11-07T02:22:41.553Z,77.55
2022-11-07T02:25:10.890Z,77.33
2022-11-07T02:27:39.404Z,78.13
2022-11-07T02:30:12.527Z,78.13
2022-11-07T02:32:39.560Z,77.87
2022-11-07T02:35:27.960Z,78.60
2022-11-07T02:37:55.053Z,78.66
2022-11-07T02:40:22.172Z,78.62
2022-11-07T02:42:49.062Z,77.90
2022-11-07T02:45:19.864Z,77.70
2022-11-07T02:47:46.720Z,77.33
2022-11-07T02:50:15.659Z,77.09
2022-11-07T02:52:42.832Z,76.88
2022-11-07T02:55:10.178Z,76.89
2022-11-07T02:57:36.898Z,76.40
2022-11-07T03:00:05.756Z,76.56
2022-11-07T03:02:32.655Z,76.35
2022-11-07T03:04:59.520Z,76.09
2022-11-07T03:07:26.243Z,76.50
2022-11-07T03:09:52.950Z,76.71
2022-11-07T03:12:19.697Z,76.92
2022-11-07T03:14:46.572Z,76.29
2022-11-07T03:17:13.302Z,76.92
2022-11-07T03:19:40.081Z,76.72
2022-11-07T03:22:06.829Z,77.96
2022-11-07T03:24:33.548Z,78.11
2022-11-07T03:27:00.327Z,78.57
2022-11-07T03:29:27.023Z,78.45
2022-11-07T03:31:53.735Z,77.67
2022-11-07T03:34:20.523Z,77.46
2022-11-07T03:36:47.275Z,77.56
2022-11-07T03:39:13.988Z,77.83
2022-11-07T03:41:40.730Z,77.83
2022-11-07T03:44:07.483Z,79.02
2022-11-07T03:46:34.219Z,78.46
2022-11-07T03:49:00.947Z,77.74
2022-11-07T03:51:27.661Z,78.47
2022-11-07T03:53:54.367Z,78.03
2022-11-07T03:56:23.910Z,77.69
2022-11-07T03:58:50.616Z,78.63
2022-11-07T04:01:17.762Z,78.54
2022-11-07T04:03:44.500Z,78.42
2022-11-07T04:06:11.277Z,78.57
2022-11-07T04:08:38.083Z,78.64
2022-11-07T04:11:04.966Z,78.73
2022-11-07T04:13:50.452Z,79.73
2022-11-07T04:16:37.298Z,79.67
2022-11-07T04:19:04.379Z,79.09
2022-11-07T04:21:31.103Z,79.15
2022-11-07T04:23:57.807Z,78.86
2022-11-07T04:26:42.934Z,79.74
2022-11-07T04:29:09.694Z,80.81
2022-11-07T04:31:36.508Z,79.92
2022-11-07T04:34:03.215Z,79.83
2022-11-07T04:36:30.030Z,80.00
2022-11-07T04:38:56.745Z,79.47
2022-11-07T04:41:24.620Z,81.66
2022-11-07T04:43:51.553Z,80.71
2022-11-07T04:46:18.403Z,81.58
2022-11-07T04:48:45.274Z,82.08
2022-11-07T04:51:17.242Z,81.37
2022-11-07T04:53:44.091Z,82.02
2022-11-07T04:56:10.886Z,81.27
2022-11-07T04:58:37.764Z,80.85
2022-11-07T05:01:04.507Z,81.20
2022-11-07T05:03:31.246Z,80.94
2022-11-07T05:05:57.997Z,80.73
2022-11-07T05:08:24.712Z,80.14
2022-11-07T05:10:51.416Z,80.50
2022-11-07T05:13:18.628Z,80.42
2022-11-07T05:15:45.500Z,80.95
2022-11-07T05:18:12.195Z,81.08
2022-11-07T05:20:39.815Z,81.34
2022-11-07T05:23:13.655Z,81.54
2022-11-07T05:25:47.173Z,81.27
2022-11-07T05:28:16.933Z,81.98
2022-11-07T05:30:45.136Z,81.89
2022-11-07T05:33:13.660Z,81.14
2022-11-07T05:35:40.444Z,80.92
2022-11-07T05:38:07.375Z,80.80
2022-11-07T05:40:38.920Z,80.50
2022-11-07T05:43:10.880Z,80.02
2022-11-07T05:45:38.440Z,80.98
2022-11-07T05:48:07.167Z,80.30
2022-11-07T05:50:33.919Z,80.83
2022-11-07T05:53:01.284Z,80.32
2022-11-07T05:55:28.294Z,80.32
2022-11-07T05:57:55.982Z,80.21
2022-11-07T06:00:23.017Z,79.70
2022-11-07T06:02:57.310Z,80.33
2022-11-07T06:05:24.599Z,79.72
2022-11-07T06:07:51.516Z,79.45
2022-11-07T06:10:18.859Z,79.42
2022-11-07T06:12:45.591Z,78.85
2022-11-07T06:15:12.762Z,78.96
2022-11-07T06:17:39.667Z,78.65
2022-11-07T06:20:07.002Z,78.92
2022-11-07T06:22:34.172Z,78.47
2022-11-07T06:25:00.890Z,78.58
2022-11-07T06:27:27.666Z,78.72
2022-11-07T06:29:54.426Z,78.29
2022-11-07T06:32:21.114Z,77.90
2022-11-07T06:34:48.058Z,78.09
2022-11-07T06:37:14.823Z,77.38
2022-11-07T06:39:41.554Z,77.52
2022-11-07T06:42:08.266Z,76.82
2022-11-07T06:44:35.046Z,77.36
2022-11-07T06:47:01.796Z,77.01
2022-11-07T06:49:28.546Z,76.30
2022-11-07T06:51:55.320Z,76.28
2022-11-07T06:54:22.068Z,75.54
2022-11-07T06:56:48.868Z,76.04
2022-11-07T06:59:15.612Z,74.53
2022-11-07T07:01:42.500Z,74.27
2022-11-07T07:04:13.022Z,74.65
2022-11-07T07:06:40.019Z,74.14
2022-11-07T07:09:09.618Z,73.87
2022-11-07T07:11:39.736Z,73.55
2022-11-07T07:14:11.377Z,73.37
2022-11-07T07:16:38.870Z,73.47
2022-11-07T07:19:05.717Z,73.13
2022-11-07T07:21:33.388Z,74.09
2022-11-07T07:24:00.111Z,72.54
2022-11-07T07:26:26.906Z,72.37
2022-11-07T07:28:53.675Z,72.82
2022-11-07T07:31:23.440Z,72.09
2022-11-07T07:33:50.540Z,72.32
2022-11-07T07:36:20.887Z,73.03
2022-11-07T07:38:48.747Z,72.02
2022-11-07T07:41:15.930Z,71.78
2022-11-07T07:43:42.814Z,72.07
2022-11-07T07:46:13.658Z,72.30
2022-11-07T07:48:40.392Z,71.72
2022-11-07T07:51:07.177Z,71.33
2022-11-07T07:53:33.956Z,70.74
2022-11-07T07:56:02.761Z,71.22
2022-11-07T07:58:29.543Z,71.40
2022-11-07T08:00:59.137Z,71.48
2022-11-07T08:03:29.368Z,70.74
2022-11-07T08:06:02.314Z,70.72
2022-11-07T08:08:31.505Z,69.30
2022-11-07T08:11:04.034Z,69.13
2022-11-07T08:13:30.842Z,69.79
2022-11-07T08:15:57.701Z,69.01
2022-11-07T08:18:24.840Z,68.94
2022-11-07T08:20:53.813Z,67.99
2022-11-07T08:23:21.515Z,68.12
2022-11-07T08:25:59.946Z,67.60
2022-11-07T08:28:29.096Z,67.54
2022-11-07T08:31:07.330Z,67.64
2022-11-07T08:33:34.780Z,66.59
2022-11-07T08:36:02.888Z,66.42
2022-11-07T08:38:30.881Z,66.07
2022-11-07T08:40:58.089Z,66.06
2022-11-07T08:43:24.987Z,65.65
2022-11-07T08:45:53.267Z,65.63
2022-11-07T08:48:20.107Z,65.62
2022-11-07T08:50:46.921Z,65.76
2022-11-07T08:53:13.629Z,65.26
2022-11-07T08:55:40.405Z,65.09
2022-11-07T08:58:08.250Z,64.23
2022-11-07T09:00:36.024Z,64.61
2022-11-07T09:05:51.521Z,64.86
2022-11-07T09:08:19.221Z,64.65
2022-11-07T09:10:46.053Z,63.86
2022-11-07T09:13:15.250Z,62.99
2022-11-07T09:15:46.309Z,61.15
2022-11-07T09:18:17.439Z,58.99
2022-11-07T09:20:44.239Z,57.31
2022-11-07T09:23:17.598Z,56.49
2022-11-07T09:25:44.722Z,54.28
2022-11-07T09:28:11.716Z,54.44
2022-11-07T09:30:39.053Z,53.45
2022-11-07T09:33:05.969Z,52.20
2022-11-07T09:35:32.752Z,50.05
2022-11-07T09:37:59.701Z,47.91
2022-11-07T09:40:40.644Z,47.36
2022-11-07T09:43:13.972Z,45.22
2022-11-07T09:45:52.926Z,44.11
2022-11-07T09:48:23.489Z,43.26
2022-11-07T09:50:51.030Z,42.72
2022-11-07T09:53:33.067Z,41.85
2022-11-07T09:56:01.717Z,39.81
2022-11-07T09:58:37.739Z,40.11
2022-11-07T10:01:07.043Z,37.18
2022-11-07T10:03:35.201Z,36.17
2022-11-07T10:06:27.183Z,34.25
2022-11-07T10:09:01.597Z,34.11
2022-11-07T10:11:39.326Z,33.63
2022-11-07T10:14:27.920Z,33.43
2022-11-07T10:17:16.360Z,33.13
2022-11-07T10:20:09.010Z,33.69
2022-11-07T10:22:42.954Z,32.77
2022-11-07T10:25:24.924Z,33.54
2022-11-07T10:28:00.812Z,33.92
2022-11-07T10:30:27.687Z,33.32
2022-11-07T10:33:01.804Z,31.12
2022-11-07T10:35:34.133Z,31.64
2022-11-07T10:38:14.087Z,31.72
2022-11-07T10:40:41.745Z,31.19
2022-11-07T10:43:10.035Z,30.67
2022-11-07T10:45:37.656Z,30.76
2022-11-07T10:48:04.845Z,31.01
2022-11-07T10:50:32.047Z,31.29
2022-11-07T10:53:06.455Z,32.22
2022-11-07T10:55:44.033Z,32.23
2022-11-07T10:58:25.454Z,32.89
2022-11-07T11:01:08.531Z,32.94
2022-11-07T11:03:49.920Z,32.35
2022-11-07T11:06:22.026Z,33.80
2022-11-07T11:08:52.372Z,34.17
2022-11-07T11:11:22.082Z,33.37
2022-11-07T11:13:49.304Z,33.40
2022-11-07T11:16:21.991Z,33.17
2022-11-07T11:18:52.998Z,32.87
2022-11-07T11:21:19.908Z,33.75
2022-11-07T11:23:47.222Z,33.19
2022-11-07T11:26:35.456Z,33.40
2022-11-07T11:29:22.956Z,33.94
2022-11-07T11:31:51.001Z,33.46
2022-11-07T11:34:42.790Z,33.77
2022-11-07T11:37:21.217Z,33.66
2022-11-07T11:39:53.973Z,34.34
2022-11-07T11:42:52.176Z,33.92
2022-11-07T11:45:26.963Z,34.22
2022-11-07T11:48:00.571Z,34.59
2022-11-07T11:50:38.872Z,34.45
2022-11-07T11:53:07.645Z,34.93
2022-11-07T11:55:39.322Z,34.75
2022-11-07T11:58:51.275Z,34.68
2022-11-07T12:01:56.958Z,34.68
2022-11-07T12:04:36.303Z,35.33
2022-11-07T12:07:09.601Z,35.19
2022-11-07T12:09:46.905Z,35.56
2022-11-07T12:12:23.323Z,35.97
2022-11-07T12:15:00.495Z,36.47
2022-11-07T12:17:37.061Z,36.37
2022-11-07T12:20:27.426Z,36.62
2022-11-07T12:23:11.809Z,35.73
2022-11-07T12:25:45.103Z,36.28
2022-11-07T12:28:33.192Z,36.48
2022-11-07T12:31:09.245Z,35.62
2022-11-07T12:33:45.000Z,35.81
2022-11-07T12:36:23.918Z,35.97
2022-11-07T12:39:36.342Z,36.13
2022-11-07T12:42:21.823Z,35.75
2022-11-07T12:45:04.924Z,36.05
2022-11-07T12:47:59.287Z,37.70
2022-11-07T12:50:51.793Z,37.42
2022-11-07T12:54:00.115Z,37.12
2022-11-07T12:56:31.952Z,36.99
2022-11-07T12:58:59.908Z,37.00
2022-11-07T13:01:33.725Z,36.99
2022-11-07T13:04:09.366Z,37.47
2022-11-07T13:06:57.801Z,37.29
2022-11-07T13:09:44.388Z,37.98
2022-11-07T13:12:43.628Z,37.85
2022-11-07T13:15:12.123Z,37.75
2022-11-07T13:17:44.232Z,37.81
2022-11-07T13:20:30.740Z,37.22
2022-11-07T13:23:00.257Z,37.61
2022-11-07T13:25:33.643Z,37.89
2022-11-07T13:28:04.823Z,38.15
2022-11-07T13:30:31.634Z,37.60
2022-11-07T13:33:00.628Z,37.95
2022-11-07T13:35:38.621Z,38.02
2022-11-07T13:38:11.607Z,38.12
2022-11-07T13:40:42.316Z,37.72
2022-11-07T13:43:16.686Z,38.11
2022-11-07T13:45:52.463Z,39.54
2022-11-07T13:48:23.354Z,39.12
2022-11-07T13:50:59.500Z,39.29
2022-11-07T13:53:33.284Z,39.60
2022-11-07T13:56:15.383Z,40.86
2022-11-07T13:58:43.443Z,42.44
2022-11-07T14:01:12.260Z,43.92
2022-11-07T14:03:39.587Z,45.35
2022-11-07T14:06:06.898Z,45.88
2022-11-07T14:08:37.458Z,46.14
2022-11-07T14:11:05.144Z,46.48
2022-11-07T14:13:40.977Z,46.42
2022-11-07T14:16:17.020Z,46.84
2022-11-07T14:18:50.380Z,46.99
2022-11-07T14:21:30.012Z,48.04
2022-11-07T14:23:57.204Z,47.71
2022-11-07T14:26:30.806Z,48.06
2022-11-07T14:28:57.825Z,48.52
2022-11-07T14:31:29.626Z,49.08
2022-11-07T14:34:02.496Z,49.72
2022-11-07T14:36:30.126Z,50.44
2022-11-07T14:39:03.478Z,50.44
2022-11-07T14:41:30.422Z,50.61
2022-11-07T14:44:00.296Z,52.18
2022-11-07T14:46:29.298Z,53.60
2022-11-07T14:48:59.130Z,53.90
2022-11-07T14:51:28.210Z,53.29
2022-11-07T14:54:11.581Z,54.65
2022-11-07T14:56:42.619Z,54.82
2022-11-07T14:59:20.658Z,55.24
2022-11-07T15:02:12.421Z,55.81
2022-11-07T15:04:44.967Z,55.77
2022-11-07T15:07:17.798Z,56.26
2022-11-07T15:09:44.784Z,56.49
2022-11-07T15:12:23.292Z,57.18
2022-11-07T15:15:10.169Z,57.78
2022-11-07T15:17:44.576Z,58.63
2022-11-07T15:20:36.259Z,58.96
2022-11-07T15:23:14.003Z,59.30
2022-11-07T15:25:45.328Z,59.30
2022-11-07T15:28:18.888Z,59.68
2022-11-07T15:30:47.114Z,60.64
2022-11-07T15:33:17.168Z,61.00
2022-11-07T15:35:45.647Z,62.31
2022-11-07T15:38:27.375Z,63.34
2022-11-07T15:40:54.393Z,63.93
2022-11-07T15:43:21.575Z,64.45
2022-11-07T15:45:50.167Z,64.81
2022-11-07T15:48:20.319Z,64.75
2022-11-07T15:50:49.045Z,65.04
2022-11-07T15:53:18.711Z,65.12
2022-11-07T15:55:45.520Z,66.28
2022-11-07T15:58:14.943Z,66.43
2022-11-07T16:00:42.379Z,66.70
2022-11-07T16:03:16.951Z,66.22
2022-11-07T16:05:45.731Z,66.42
2022-11-07T16:08:21.635Z,66.88
2022-11-07T16:10:50.373Z,67.18
2022-11-07T16:13:17.148Z,67.66
2022-11-07T16:15:46.208Z,68.00
2022-11-07T16:18:18.842Z,68.01
2022-11-07T16:20:47.173Z,67.39
2022-11-07T16:23:14.044Z,67.25
2022-11-07T16:25:42.879Z,67.24
2022-11-07T16:28:25.996Z,66.79
2022-11-07T16:30:53.336Z,66.95
2022-11-07T16:33:20.402Z,66.13
2022-11-07T16:35:51.835Z,65.40
2022-11-07T16:38:19.907Z,65.76
2022-11-07T16:40:47.011Z,66.05
2022-11-07T16:43:14.087Z,66.34
2022-11-07T16:45:46.737Z,66.33
2022-11-07T16:48:27.764Z,66.90
2022-11-07T16:50:55.849Z,66.48
2022-11-07T16:53:23.687Z,66.38
2022-11-07T16:55:54.184Z,66.78
2022-11-07T16:58:27.317Z,66.99
2022-11-07T17:00:56.494Z,66.99
2022-11-07T17:03:24.231Z,67.31
2022-11-07T17:05:55.905Z,67.95
2022-11-07T17:08:35.210Z,68.39
2022-11-07T17:11:01.959Z,68.84
2022-11-07T17:13:28.883Z,69.17
2022-11-07T17:15:55.848Z,69.17
2022-11-07T17:18:24.558Z,68.57
2022-11-07T17:20:53.573Z,68.90
2022-11-07T17:23:26.815Z,69.04
2022-11-07T17:25:55.545Z,69.20
2022-11-07T17:28:23.309Z,69.58
2022-11-07T17:30:50.103Z,68.72
2022-11-07T17:33:16.987Z,68.82
2022-11-07T17:35:43.801Z,69.27
2022-11-07T17:38:16.493Z,68.65
2022-11-07T17:40:43.809Z,69.94
2022-11-07T17:43:10.602Z,69.34
2022-11-07T17:45:37.560Z,69.50
2022-11-07T17:48:04.557Z,69.13
2022-11-07T17:50:31.641Z,68.45
2022-11-07T17:52:58.509Z,68.67
2022-11-07T17:55:25.577Z,69.24
2022-11-07T17:57:52.561Z,68.99
2022-11-07T18:00:22.140Z,69.58
2022-11-07T18:02:50.384Z,69.89
2022-11-07T18:05:19.465Z,69.89
2022-11-07T18:07:46.347Z,70.28
2022-11-07T18:10:15.491Z,70.38
2022-11-07T18:12:42.765Z,70.38
2022-11-07T18:15:12.875Z,70.95
2022-11-07T18:17:40.778Z,71.27
2022-11-07T18:20:09.316Z,71.51
2022-11-07T18:22:37.348Z,71.48
2022-11-07T18:25:08.406Z,71.49
2022-11-07T18:27:35.836Z,71.63
2022-11-07T18:30:03.529Z,71.94
2022-11-07T18:32:35.721Z,71.58
2022-11-07T18:35:04.921Z,72.48
2022-11-07T18:37:31.959Z,72.63
2022-11-07T18:39:58.815Z,72.62
2022-11-07T18:42:25.578Z,73.04
2022-11-07T18:44:52.341Z,73.24
2022-11-07T18:47:19.050Z,73.47
2022-11-07T18:49:51.547Z,73.96
2022-11-07T18:52:22.489Z,73.69
2022-11-07T18:54:49.215Z,73.73
2022-11-07T18:57:15.950Z,74.80
2022-11-07T18:59:42.659Z,74.16
2022-11-07T19:02:09.834Z,73.66
2022-11-07T19:04:36.939Z,73.25
2022-11-07T19:07:04.180Z,72.81
2022-11-07T19:09:32.881Z,73.55
2022-11-07T19:11:59.983Z,73.10
2022-11-07T19:14:27.939Z,72.23
2022-11-07T19:16:54.888Z,72.53
2022-11-07T19:19:22.645Z,71.81
2022-11-07T19:21:49.539Z,72.21
2022-11-07T19:24:16.385Z,72.45
2022-11-07T19:26:43.729Z,72.27
2022-11-07T19:29:10.519Z,72.02
2022-11-07T19:31:38.070Z,72.63
2022-11-07T19:34:05.507Z,73.14
2022-11-07T19:36:32.447Z,73.07
2022-11-07T19:38:59.342Z,73.05
2022-11-07T19:41:26.142Z,72.77
2022-11-07T19:43:53.004Z,73.66
2022-11-07T19:46:22.546Z,73.04
2022-11-07T19:48:50.005Z,72.72
2022-11-07T19:51:22.092Z,73.14
2022-11-07T19:53:58.094Z,73.36
2022-11-07T19:56:29.491Z,73.28
2022-11-07T19:58:56.411Z,73.66
2022-11-07T20:01:26.262Z,74.31
2022-11-07T20:03:54.091Z,73.82
2022-11-07T20:06:23.599Z,73.67
2022-11-07T20:08:51.064Z,74.13
2022-11-07T20:11:23.463Z,74.85
2022-11-07T20:13:50.872Z,74.78
2022-11-07T20:16:17.655Z,75.50
2022-11-07T20:18:45.149Z,74.75
2022-11-07T20:21:17.869Z,74.69
2022-11-07T20:23:49.163Z,73.47
2022-11-07T20:26:21.810Z,73.74
2022-11-07T20:28:49.281Z,73.47
2022-11-07T20:31:19.614Z,72.96
2022-11-07T20:33:47.175Z,72.90
2022-11-07T20:36:15.188Z,72.76
2022-11-07T20:38:43.709Z,73.22
2022-11-07T20:41:10.839Z,72.22
2022-11-07T20:43:39.461Z,73.14
2022-11-07T20:46:07.973Z,72.55
2022-11-07T20:48:35.590Z,72.26
2022-11-07T20:51:13.839Z,72.40
2022-11-07T20:53:46.727Z,72.40
2022-11-07T20:56:16.535Z,72.31
2022-11-07T20:58:44.541Z,72.45
2022-11-07T21:01:15.379Z,72.55
2022-11-07T21:03:42.126Z,72.70
2022-11-07T21:06:11.550Z,72.68
2022-11-07T21:08:43.459Z,72.56
2022-11-07T21:11:11.289Z,72.70
2022-11-07T21:13:38.123Z,71.81
2022-11-07T21:16:05.826Z,72.75
2022-11-07T21:18:32.684Z,73.27
2022-11-07T21:21:13.560Z,73.36
2022-11-07T21:23:40.319Z,73.42
2022-11-07T21:26:08.671Z,73.75
2022-11-07T21:28:35.835Z,73.49
2022-11-07T21:31:04.437Z,73.76
2022-11-07T21:33:31.798Z,74.24
2022-11-07T21:35:58.731Z,74.12
2022-11-07T21:38:25.630Z,74.11
2022-11-07T21:40:52.802Z,73.51
2022-11-07T21:43:19.876Z,73.33
2022-11-07T21:45:46.848Z,73.82
2022-11-07T21:48:13.810Z,73.79
2022-11-07T21:50:45.436Z,73.49
2022-11-07T21:53:13.558Z,73.38
2022-11-07T21:55:40.335Z,73.94
2022-11-07T21:58:07.057Z,73.91
2022-11-07T22:00:36.694Z,73.64
2022-11-07T22:03:04.931Z,73.77
2022-11-07T22:05:31.777Z,74.23
2022-11-07T22:07:58.919Z,73.86
2022-11-07T22:10:25.635Z,73.88
2022-11-07T22:12:52.917Z,73.90
2022-11-07T22:15:19.681Z,74.01
2022-11-07T22:17:46.412Z,73.72
2022-11-07T22:20:13.133Z,74.45
2022-11-07T22:22:40.031Z,74.43
2022-11-07T22:25:07.143Z,74.71
2022-11-07T22:27:33.998Z,74.55
2022-11-07T22:30:00.743Z,74.04
2022-11-07T22:32:27.433Z,74.52
2022-11-07T22:34:54.125Z,74.11
2022-11-07T22:37:20.879Z,74.27
2022-11-07T22:39:47.629Z,74.27
2022-11-07T22:42:15.672Z,73.81
2022-11-07T22:44:45.227Z,73.49
2022-11-07T22:47:11.936Z,74.16
2022-11-07T22:49:38.713Z,73.94
2022-11-07T22:52:05.431Z,73.77
2022-11-07T22:54:32.172Z,74.36
2022-11-07T22:56:58.927Z,74.08
2022-11-07T22:59:25.700Z,74.24
2022-11-07T23:01:52.594Z,74.52
2022-11-07T23:04:19.499Z,74.63
2022-11-07T23:06:46.449Z,74.40
2022-11-07T23:09:17.027Z,74.83
2022-11-07T23:11:46.288Z,74.86
2022-11-07T23:14:15.019Z,74.89
2022-11-07T23:17:00.027Z,74.94
2022-11-07T23:19:27.010Z,75.46
2022-11-07T23:21:54.995Z,74.92
2022-11-07T23:24:21.778Z,76.11
2022-11-07T23:26:49.059Z,75.88
2022-11-07T23:29:18.402Z,75.18
2022-11-07T23:31:47.223Z,75.06
2022-11-07T23:34:14.681Z,74.80
2022-11-07T23:36:44.323Z,75.47
2022-11-07T23:39:16.771Z,75.36
2022-11-07T23:41:43.985Z,75.39
2022-11-07T23:44:11.502Z,75.80
2022-11-07T23:46:56.828Z,75.50
2022-11-07T23:49:35.512Z,75.09
2022-11-07T23:52:02.408Z,75.52
2022-11-07T23:54:47.601Z,75.02
2022-11-07T23:57:14.426Z,75.88
2022-11-07T23:59:59.649Z,75.85
